Time;durP1;ratioP1;P1;durP2;ratioP2;P2;SDS_P1;SDS_P2;PMS_P1;PMS_P2;Temp;Humidity;BMP_temperature;BMP_pressure;BME280_temperature;BME280_humidity;BME280_pressure;Samples;Min_cycle;Max_cycle;Signal;HPM_P1;HPM_P2
2024/01/09 00:00:09;;;;;;;221.32;78.90;;;;;;;8.19;nan;99392.66;5086502;28;20055;-74
2024/01/09 00:02:38;;;;;;;224.13;78.50;;;;;;;8.27;nan;99397.16;5075106;28;20048;-75
2024/01/09 00:05:08;;;;;;;215.02;81.10;;;;;;;8.20;nan;99394.31;5060094;28;20052;-73
2024/01/09 00:07:37;;;;;;;235.50;80.80;;;;;;;8.18;nan;99395.47;5080674;28;20051;-75
2024/01/09 00:10:08;;;;;;;226.05;81.68;;;;;;;8.19;nan;99400.56;5084267;28;20052;-75
2024/01/09 00:12:37;;;;;;;218.48;79.63;;;;;;;8.10;nan;99393.63;5059609;28;20052;-74
2024/01/09 00:15:07;;;;;;;211.18;77.50;;;;;;;8.17;nan;99391.19;5084322;28;20265;-72
2024/01/09 00:17:36;;;;;;;211.18;77.72;;;;;;;8.05;nan;99388.03;5084418;28;20039;-76
2024/01/09 00:20:07;;;;;;;218.90;78.38;;;;;;;8.14;nan;99385.22;5087431;28;20040;-76
2024/01/09 00:22:36;;;;;;;211.13;79.63;;;;;;;8.23;nan;99395.84;5080772;28;20054;-75
2024/01/09 00:25:07;;;;;;;217.30;79.72;;;;;;;8.17;nan;99396.47;5090430;28;20047;-71
2024/01/09 00:27:36;;;;;;;211.52;78.90;;;;;;;8.22;nan;99396.81;5089959;28;20058;-74
2024/01/09 00:30:06;;;;;;;223.38;82.38;;;;;;;8.16;nan;99393.00;5090749;28;20112;-73
2024/01/09 00:32:36;;;;;;;229.70;85.93;;;;;;;8.11;nan;99396.09;5081962;28;20055;-75
2024/01/09 00:35:06;;;;;;;232.40;87.25;;;;;;;8.12;nan;99395.13;5094814;28;20556;-71
2024/01/09 00:37:36;;;;;;;244.13;89.20;;;;;;;8.16;nan;99400.91;5090050;28;20055;-72
2024/01/09 00:40:05;;;;;;;232.02;90.38;;;;;;;8.16;nan;99408.81;5088414;28;20074;-71
2024/01/09 00:42:35;;;;;;;230.45;86.63;;;;;;;8.25;nan;99407.03;5086073;28;20047;-72
2024/01/09 00:45:07;;;;;;;218.98;85.70;;;;;;;8.41;nan;99407.94;5075433;28;20051;-74
2024/01/09 00:47:37;;;;;;;211.07;83.43;;;;;;;8.17;nan;99414.94;5091384;28;20062;-74
2024/01/09 00:50:06;;;;;;;201.50;79.53;;;;;;;7.99;nan;99418.50;5088465;28;20051;-74
2024/01/09 00:52:36;;;;;;;206.35;80.63;;;;;;;8.09;nan;99419.19;5084608;28;20048;-75
2024/01/09 00:55:06;;;;;;;194.45;78.53;;;;;;;8.22;nan;99415.28;5086421;28;20617;-73
2024/01/09 00:57:36;;;;;;;196.63;77.43;;;;;;;8.02;nan;99426.06;5078442;28;20417;-73
2024/01/09 01:00:06;;;;;;;191.30;73.97;;;;;;;8.03;nan;99433.00;5082884;28;20048;-74
2024/01/09 01:02:36;;;;;;;178.18;71.43;;;;;;;7.99;nan;99431.69;5067563;28;20051;-74
2024/01/09 01:05:06;;;;;;;188.35;69.28;;;;;;;8.20;nan;99433.06;5077205;28;20044;-75
2024/01/09 01:07:35;;;;;;;176.43;68.22;;;;;;;8.35;nan;99429.72;5080487;28;20101;-74
2024/01/09 01:10:05;;;;;;;184.95;72.10;;;;;;;8.09;nan;99440.31;5084285;28;20043;-73
2024/01/09 01:12:34;;;;;;;178.80;68.90;;;;;;;8.10;nan;99439.28;5059543;28;20102;-73
2024/01/09 01:15:04;;;;;;;179.70;67.03;;;;;;;8.01;nan;99440.25;5086003;28;20052;-73
2024/01/09 01:17:34;;;;;;;180.23;66.28;;;;;;;7.81;nan;99440.66;5087099;28;20726;-73
2024/01/09 01:20:04;;;;;;;176.30;64.05;;;;;;;7.83;nan;99438.69;5088654;28;20063;-72
2024/01/09 01:22:34;;;;;;;170.45;62.53;;;;;;;7.92;nan;99450.94;5078785;28;20526;-73
2024/01/09 01:25:03;;;;;;;180.70;64.75;;;;;;;7.89;nan;99448.59;5067718;28;20487;-74
2024/01/09 01:27:32;;;;;;;169.85;66.32;;;;;;;7.93;nan;99448.13;5083974;28;20414;-74
2024/01/09 01:30:02;;;;;;;175.27;66.13;;;;;;;8.12;nan;99454.97;5087939;28;20055;-73
2024/01/09 01:32:32;;;;;;;176.07;62.95;;;;;;;8.12;nan;99455.81;5086518;28;20040;-74
2024/01/09 01:35:01;;;;;;;168.32;66.65;;;;;;;8.10;nan;99465.69;5083109;28;20043;-74
2024/01/09 01:37:30;;;;;;;169.68;66.07;;;;;;;8.10;nan;99470.13;5071169;28;20118;-75
2024/01/09 01:40:00;;;;;;;182.90;73.22;;;;;;;8.08;nan;99477.38;5078640;28;20044;-74
2024/01/09 01:42:30;;;;;;;191.98;72.45;;;;;;;8.01;nan;99481.66;5086042;28;20051;-74
2024/01/09 01:44:59;;;;;;;179.10;67.82;;;;;;;8.01;nan;99482.44;5085222;28;20139;-75
2024/01/09 01:47:29;;;;;;;175.43;69.03;;;;;;;8.08;nan;99495.84;5074367;28;20376;-74
2024/01/09 01:49:58;;;;;;;187.15;68.05;;;;;;;8.07;nan;99492.38;5078036;28;20052;-75
2024/01/09 01:52:28;;;;;;;186.20;67.90;;;;;;;8.18;nan;99499.22;5087041;28;20728;-74
2024/01/09 01:54:57;;;;;;;188.35;69.07;;;;;;;8.34;nan;99506.38;5088361;28;20580;-74
2024/01/09 01:57:27;;;;;;;191.95;71.32;;;;;;;8.23;nan;99511.94;5078619;28;20503;-74
2024/01/09 01:59:57;;;;;;;192.55;71.15;;;;;;;8.36;nan;99504.44;5083503;28;20051;-74
2024/01/09 02:02:27;;;;;;;186.85;71.60;;;;;;;8.42;nan;99509.06;5077532;28;20063;-74
2024/01/09 02:04:58;;;;;;;185.30;67.57;;;;;;;8.17;nan;99515.19;5053958;28;20775;-74
2024/01/09 02:07:31;;;;;;;191.07;71.15;;;;;;;8.26;nan;99522.16;5065004;28;20055;-74
2024/01/09 02:10:02;;;;;;;167.52;67.20;;;;;;;8.19;nan;99524.59;5078313;28;20177;-74
2024/01/09 02:12:31;;;;;;;175.63;62.85;;;;;;;8.20;nan;99533.34;5061579;28;20055;-74
2024/01/09 02:15:01;;;;;;;170.75;62.50;;;;;;;8.29;nan;99540.31;5083073;28;20048;-73
2024/01/09 02:17:32;;;;;;;167.15;63.30;;;;;;;8.26;nan;99536.19;5076156;28;20048;-75
2024/01/09 02:20:02;;;;;;;157.85;62.45;;;;;;;8.33;nan;99533.75;5083169;28;20535;-74
2024/01/09 02:22:32;;;;;;;161.13;62.67;;;;;;;8.43;nan;99535.31;5078065;28;20141;-74
2024/01/09 02:25:03;;;;;;;175.75;63.58;;;;;;;8.46;nan;99539.44;5060634;28;20052;-74
2024/01/09 02:28:02;;;;;;;171.73;63.20;;;;;;;8.21;nan;99540.28;5080195;28;20449;-74
2024/01/09 02:30:32;;;;;;;165.68;61.47;;;;;;;8.31;nan;99554.22;5080899;28;20044;-74
2024/01/09 02:33:02;;;;;;;157.98;61.33;;;;;;;8.36;nan;99552.78;5078553;28;20051;-74
2024/01/09 02:35:32;;;;;;;162.30;62.40;;;;;;;8.31;nan;99559.50;5078644;28;20105;-74
2024/01/09 02:38:02;;;;;;;159.77;63.03;;;;;;;8.24;nan;99553.13;5064493;28;20052;-74
2024/01/09 02:40:32;;;;;;;168.90;64.15;;;;;;;8.09;nan;99559.03;5058564;28;20044;-74
2024/01/09 02:43:01;;;;;;;181.75;64.88;;;;;;;8.16;nan;99561.00;5060730;28;20067;-71
2024/01/09 02:45:30;;;;;;;174.85;67.47;;;;;;;8.12;nan;99561.34;5100265;28;20054;-74
2024/01/09 02:48:00;;;;;;;188.20;66.20;;;;;;;8.28;nan;99570.31;5083855;28;20554;-74
2024/01/09 02:50:30;;;;;;;201.50;75.57;;;;;;;8.28;nan;99568.50;5078113;28;20056;-75
2024/01/09 02:52:59;;;;;;;201.57;74.30;;;;;;;8.16;nan;99566.28;5056299;28;20110;-75
2024/01/09 02:55:29;;;;;;;211.15;79.32;;;;;;;8.09;nan;99566.09;5061923;28;20051;-73
2024/01/09 02:57:58;;;;;;;179.30;68.80;;;;;;;8.09;nan;99569.56;5085879;28;20051;-73
2024/01/09 03:00:27;;;;;;;188.93;67.15;;;;;;;8.26;nan;99577.56;5063036;28;20052;-74
2024/01/09 03:02:57;;;;;;;161.52;61.92;;;;;;;8.27;nan;99573.97;5072297;28;20607;-73
2024/01/09 03:05:27;;;;;;;171.68;61.55;;;;;;;8.22;nan;99582.34;5074121;28;20048;-73
2024/01/09 03:07:58;;;;;;;160.75;60.00;;;;;;;8.23;nan;99578.69;5066489;28;20044;-73
2024/01/09 03:10:27;;;;;;;177.85;65.45;;;;;;;8.02;nan;99584.34;5071629;28;20082;-73
2024/01/09 03:12:57;;;;;;;171.43;66.88;;;;;;;8.00;nan;99581.03;5065936;28;20143;-73
2024/01/09 03:15:26;;;;;;;163.50;60.83;;;;;;;7.96;nan;99584.16;5083049;28;20047;-73
2024/01/09 03:17:55;;;;;;;170.45;63.95;;;;;;;8.02;nan;99579.06;5082851;28;20094;-74
2024/01/09 03:20:25;;;;;;;176.07;65.28;;;;;;;8.01;nan;99590.59;5047721;28;20043;-73
2024/01/09 03:22:54;;;;;;;177.98;65.20;;;;;;;8.03;nan;99596.56;5055137;28;20055;-73
2024/01/09 03:25:26;;;;;;;177.35;65.32;;;;;;;8.16;nan;99596.16;5078710;28;20048;-74
2024/01/09 03:28:02;;;;;;;169.70;64.55;;;;;;;8.18;nan;99596.84;5051105;28;20054;-75
2024/01/09 03:30:34;;;;;;;183.43;68.35;;;;;;;8.39;nan;99604.41;5055720;28;20075;-74
2024/01/09 03:33:04;;;;;;;173.50;69.68;;;;;;;8.16;nan;99624.34;5052710;28;20048;-73
2024/01/09 03:35:33;;;;;;;191.25;70.75;;;;;;;8.48;nan;99620.13;5056254;28;20363;-75
2024/01/09 03:38:03;;;;;;;199.70;73.25;;;;;;;8.50;nan;99623.44;5053549;28;20059;-74
2024/01/09 03:40:33;;;;;;;199.68;76.65;;;;;;;8.46;nan;99631.81;5039364;28;20121;-75
2024/01/09 03:43:03;;;;;;;204.77;75.03;;;;;;;8.40;nan;99643.00;5040378;28;20052;-75
2024/01/09 03:45:33;;;;;;;206.30;74.53;;;;;;;8.41;nan;99653.41;5059371;28;20051;-75
2024/01/09 03:48:02;;;;;;;214.05;78.20;;;;;;;8.37;nan;99659.13;5041021;28;20044;-75
2024/01/09 03:50:31;;;;;;;206.07;79.57;;;;;;;8.28;nan;99662.66;5082375;28;20059;-75
2024/01/09 03:53:01;;;;;;;233.60;82.72;;;;;;;8.41;nan;99661.31;5072628;28;20090;-74
2024/01/09 03:55:30;;;;;;;264.25;94.15;;;;;;;8.42;nan;99664.78;5054807;28;20048;-72
2024/01/09 03:57:59;;;;;;;258.70;91.45;;;;;;;8.26;nan;99672.56;5083457;28;20040;-73
2024/01/09 04:00:29;;;;;;;237.55;90.18;;;;;;;8.32;nan;99662.25;5081486;28;20052;-74
2024/01/09 04:02:58;;;;;;;265.75;90.47;;;;;;;8.51;nan;99677.06;5074645;28;20155;-72
2024/01/09 04:05:27;;;;;;;264.00;95.90;;;;;;;8.27;nan;99679.50;5101484;27;20051;-73
2024/01/09 04:07:57;;;;;;;268.30;97.53;;;;;;;8.35;nan;99679.59;5083622;28;20078;-75
2024/01/09 04:10:26;;;;;;;275.10;95.70;;;;;;;8.39;nan;99676.50;5077889;28;20147;-73
2024/01/09 04:12:55;;;;;;;264.20;97.78;;;;;;;8.38;nan;99680.13;5082636;28;20044;-74
2024/01/09 04:15:24;;;;;;;267.77;97.53;;;;;;;8.36;nan;99675.97;5079496;28;20044;-75
2024/01/09 04:17:54;;;;;;;263.77;95.85;;;;;;;8.41;nan;99682.44;5078319;28;20044;-73
2024/01/09 04:20:23;;;;;;;267.67;95.85;;;;;;;8.53;nan;99694.41;5077273;28;20044;-75
2024/01/09 04:22:58;;;;;;;266.25;92.20;;;;;;;8.48;nan;99691.41;5082458;28;20048;-75
2024/01/09 04:25:27;;;;;;;257.40;93.75;;;;;;;8.49;nan;99694.88;5078470;28;20062;-72
2024/01/09 04:27:57;;;;;;;257.17;92.63;;;;;;;8.44;nan;99697.16;5075262;28;20136;-75
2024/01/09 04:30:26;;;;;;;265.70;97.05;;;;;;;8.44;nan;99700.63;5088441;28;20093;-75
2024/01/09 04:32:56;;;;;;;272.38;101.28;;;;;;;8.35;nan;99701.53;5091157;28;20783;-75
2024/01/09 04:35:25;;;;;;;276.80;99.25;;;;;;;8.40;nan;99695.81;5090865;28;20133;-74
2024/01/09 04:37:55;;;;;;;263.92;96.30;;;;;;;8.52;nan;99705.94;5088568;28;20048;-72
2024/01/09 04:40:25;;;;;;;262.17;95.88;;;;;;;8.54;nan;99703.16;5088396;28;20047;-73
2024/01/09 04:42:54;;;;;;;270.45;99.00;;;;;;;8.57;nan;99705.50;5086394;28;20051;-75
2024/01/09 04:45:24;;;;;;;264.60;96.85;;;;;;;8.68;nan;99709.66;5065124;28;20799;-73
2024/01/09 04:47:53;;;;;;;261.95;96.93;;;;;;;8.81;nan;99713.53;5090078;28;20364;-75
2024/01/09 04:50:23;;;;;;;280.17;103.38;;;;;;;8.67;nan;99726.53;5084219;28;20048;-76
2024/01/09 04:52:52;;;;;;;275.33;101.78;;;;;;;8.60;nan;99723.66;5084336;28;20052;-75
2024/01/09 04:55:21;;;;;;;291.80;106.32;;;;;;;8.65;nan;99723.19;5081869;28;20049;-73
2024/01/09 04:57:51;;;;;;;298.05;107.93;;;;;;;8.73;nan;99728.53;5083848;28;20137;-75
2024/01/09 05:00:21;;;;;;;302.33;110.35;;;;;;;8.79;nan;99734.03;5082403;28;20076;-75
2024/01/09 05:02:53;;;;;;;292.05;108.65;;;;;;;8.87;nan;99738.50;5068177;28;20118;-76
2024/01/09 05:05:23;;;;;;;312.85;114.25;;;;;;;8.68;nan;99742.19;5062433;28;20048;-74
2024/01/09 05:07:52;;;;;;;289.27;109.05;;;;;;;8.67;nan;99737.91;5068365;28;20079;-74
2024/01/09 05:10:22;;;;;;;297.15;105.63;;;;;;;8.74;nan;99743.38;5071379;28;20155;-74
2024/01/09 05:12:51;;;;;;;280.05;105.95;;;;;;;8.63;nan;99736.53;5061210;28;20822;-72
2024/01/09 05:15:21;;;;;;;296.67;105.93;;;;;;;8.55;nan;99728.56;5057330;28;20131;-74
2024/01/09 05:17:50;;;;;;;290.05;107.30;;;;;;;8.78;nan;99740.28;5055264;28;20040;-75
2024/01/09 05:20:20;;;;;;;281.15;106.53;;;;;;;8.79;nan;99738.47;5038389;28;20499;-73
2024/01/09 05:22:50;;;;;;;301.17;108.53;;;;;;;8.77;nan;99735.13;5047994;28;20586;-70
2024/01/09 05:25:20;;;;;;;292.15;107.63;;;;;;;8.82;nan;99723.13;5061793;28;20049;-75
2024/01/09 05:27:50;;;;;;;304.23;106.50;;;;;;;8.82;nan;99717.03;5042939;28;20399;-70
2024/01/09 05:30:19;;;;;;;273.50;104.30;;;;;;;8.81;nan;99708.25;5055006;28;20439;-74
2024/01/09 05:32:48;;;;;;;274.85;101.43;;;;;;;8.93;nan;99709.69;5060499;28;20125;-70
2024/01/09 05:35:18;;;;;;;275.60;102.95;;;;;;;8.59;nan;99716.72;5058720;28;20389;-69
2024/01/09 05:37:47;;;;;;;279.20;103.10;;;;;;;8.84;nan;99712.44;5063925;28;20075;-68
2024/01/09 05:40:17;;;;;;;284.27;106.10;;;;;;;8.73;nan;99708.22;5057728;28;20148;-70
2024/01/09 05:42:47;;;;;;;278.73;103.32;;;;;;;8.81;nan;99695.06;5073888;28;20097;-69
2024/01/09 05:45:16;;;;;;;286.13;104.75;;;;;;;8.81;nan;99697.69;5065943;28;20612;-73
2024/01/09 05:47:45;;;;;;;261.77;100.18;;;;;;;8.93;nan;99693.81;5054690;28;20130;-73
2024/01/09 05:50:15;;;;;;;232.55;91.20;;;;;;;9.00;nan;99688.72;5049443;28;20052;-72
2024/01/09 05:52:45;;;;;;;226.95;85.85;;;;;;;8.96;nan;99693.50;5038270;28;20091;-75
2024/01/09 05:55:14;;;;;;;221.80;86.43;;;;;;;8.97;nan;99691.69;5062173;28;20059;-71
2024/01/09 05:57:44;;;;;;;235.85;92.55;;;;;;;8.88;nan;99690.81;5032786;28;20044;-67
2024/01/09 06:00:14;;;;;;;237.95;91.85;;;;;;;8.94;nan;99692.81;5069883;28;20055;-71
2024/01/09 06:02:44;;;;;;;243.80;93.53;;;;;;;9.15;nan;99686.31;5080552;28;20040;-71
2024/01/09 06:05:14;;;;;;;189.52;73.82;;;;;;;9.09;nan;99685.13;5081187;28;20502;-71
2024/01/09 06:07:43;;;;;;;182.15;70.25;;;;;;;9.16;nan;99677.41;5087052;28;20050;-70
2024/01/09 06:10:12;;;;;;;204.05;80.68;;;;;;;8.87;nan;99672.47;5075836;28;20410;-70
2024/01/09 06:12:42;;;;;;;203.57;80.20;;;;;;;8.78;nan;99674.25;5096462;28;20555;-70
2024/01/09 06:15:11;;;;;;;202.55;80.50;;;;;;;8.86;nan;99670.81;5081154;28;20260;-70
2024/01/09 06:17:40;;;;;;;222.35;78.60;;;;;;;8.97;nan;99662.63;5066158;28;20052;-70
2024/01/09 06:20:10;;;;;;;200.70;80.95;;;;;;;8.85;nan;99658.63;5085551;28;20044;-70
2024/01/09 06:22:39;;;;;;;208.43;77.68;;;;;;;8.98;nan;99654.53;5079559;28;20131;-70
2024/01/09 06:25:09;;;;;;;205.32;77.68;;;;;;;9.13;nan;99656.56;5076638;28;20598;-71
2024/01/09 06:27:38;;;;;;;229.95;85.95;;;;;;;9.05;nan;99660.00;5077064;28;20147;-71
2024/01/09 06:30:08;;;;;;;208.35;78.03;;;;;;;9.19;nan;99655.94;5081195;28;20051;-70
2024/01/09 06:32:38;;;;;;;204.05;77.22;;;;;;;9.25;nan;99653.47;5086764;28;20066;-70
2024/01/09 06:35:07;;;;;;;190.02;74.03;;;;;;;9.15;nan;99650.16;5083155;28;20105;-71
2024/01/09 06:37:37;;;;;;;199.60;75.13;;;;;;;9.05;nan;99654.72;5079279;28;20051;-71
2024/01/09 06:40:07;;;;;;;188.80;74.30;;;;;;;9.11;nan;99648.81;5063712;28;20044;-71
2024/01/09 06:42:37;;;;;;;191.05;75.38;;;;;;;9.13;nan;99644.19;5082502;28;20036;-71
2024/01/09 06:45:06;;;;;;;191.73;74.75;;;;;;;9.19;nan;99637.44;5078567;28;20525;-70
2024/01/09 06:47:36;;;;;;;190.02;77.97;;;;;;;9.32;nan;99633.34;5059317;28;20055;-71
2024/01/09 06:50:05;;;;;;;188.93;75.45;;;;;;;9.04;nan;99626.66;5074707;28;20052;-71
2024/01/09 06:52:44;;;;;;;184.02;74.03;;;;;;;9.24;nan;99628.03;5074291;28;20052;-70
2024/01/09 06:55:13;;;;;;;187.68;71.25;;;;;;;9.11;nan;99622.41;5072149;28;20102;-71
2024/01/09 06:57:43;;;;;;;186.95;72.07;;;;;;;9.33;nan;99621.78;5078100;28;20136;-73
2024/01/09 07:00:13;;;;;;;183.50;71.63;;;;;;;9.33;nan;99605.09;5079771;28;20093;-73
2024/01/09 07:02:43;;;;;;;171.68;66.97;;;;;;;9.40;nan;99598.16;5076678;28;20052;-75
2024/01/09 07:05:12;;;;;;;164.98;64.50;;;;;;;9.45;nan;99609.09;5056792;28;20109;-73
2024/01/09 07:07:42;;;;;;;166.65;65.65;;;;;;;9.36;nan;99599.47;5055877;28;20049;-71
2024/01/09 07:10:17;;;;;;;160.93;63.17;;;;;;;9.50;nan;99604.13;5074608;28;20055;-72
2024/01/09 07:12:47;;;;;;;164.18;64.90;;;;;;;9.52;nan;99610.06;5066008;28;20071;-69
2024/01/09 07:15:16;;;;;;;163.82;66.32;;;;;;;9.32;nan;99614.84;5031508;28;20121;-72
2024/01/09 07:17:46;;;;;;;174.30;67.68;;;;;;;9.39;nan;99607.91;5065622;28;20044;-71
2024/01/09 07:20:15;;;;;;;161.93;64.28;;;;;;;9.52;nan;99602.13;5063097;28;20045;-70
2024/01/09 07:22:45;;;;;;;219.13;80.70;;;;;;;9.43;nan;99592.53;5069019;28;20047;-71
2024/01/09 07:25:16;;;;;;;195.98;73.82;;;;;;;9.39;nan;99593.84;5044546;28;20036;-71
2024/01/09 07:27:46;;;;;;;194.40;71.82;;;;;;;9.39;nan;99584.13;5064932;28;20543;-70
2024/01/09 07:30:16;;;;;;;181.68;69.53;;;;;;;9.20;nan;99587.06;5061239;28;20063;-72
2024/01/09 07:32:46;;;;;;;188.80;72.28;;;;;;;9.35;nan;99581.97;5064052;28;20048;-70
2024/01/09 07:35:15;;;;;;;197.82;73.35;;;;;;;9.24;nan;99577.84;5059803;28;20060;-70
2024/01/09 07:37:45;;;;;;;180.50;75.10;;;;;;;9.21;nan;99580.78;5064564;28;20072;-72
2024/01/09 07:40:14;;;;;;;203.48;79.38;;;;;;;9.15;nan;99576.16;5041214;28;20048;-70
2024/01/09 07:42:44;;;;;;;202.25;78.80;;;;;;;9.46;nan;99579.00;5064728;28;20048;-72
2024/01/09 07:45:20;;;;;;;228.60;83.30;;;;;;;9.56;nan;99574.38;5061485;28;20068;-69
2024/01/09 07:47:50;;;;;;;232.60;86.82;;;;;;;9.60;nan;99578.38;5046411;28;20052;-70
2024/01/09 07:50:19;;;;;;;223.13;86.35;;;;;;;9.59;nan;99578.53;5063886;28;20114;-69
2024/01/09 07:52:48;;;;;;;214.40;79.90;;;;;;;9.56;nan;99573.56;5064552;28;20532;-76
2024/01/09 07:55:18;;;;;;;216.32;81.68;;;;;;;9.44;nan;99567.75;5063106;28;20067;-72
2024/01/09 07:57:47;;;;;;;216.40;81.53;;;;;;;9.57;nan;99565.47;5063417;28;20044;-68
2024/01/09 08:00:17;;;;;;;206.50;77.45;;;;;;;9.37;nan;99564.13;5064466;28;20479;-74
2024/01/09 08:02:47;;;;;;;211.82;77.82;;;;;;;9.41;nan;99560.16;5056263;28;20051;-70
2024/01/09 08:05:16;;;;;;;198.15;75.13;;;;;;;9.45;nan;99562.31;5063075;28;20051;-68
2024/01/09 08:07:45;;;;;;;193.23;72.65;;;;;;;9.23;nan;99551.56;5083992;28;20043;-68
2024/01/09 08:10:15;;;;;;;193.68;74.60;;;;;;;9.64;nan;99555.06;5066736;28;20048;-70
2024/01/09 08:12:44;;;;;;;200.20;76.00;;;;;;;9.58;nan;99551.25;5079914;28;20043;-70
2024/01/09 08:15:13;;;;;;;203.32;72.90;;;;;;;9.59;nan;99552.09;5081473;28;20157;-70
2024/01/09 08:17:43;;;;;;;192.82;74.70;;;;;;;9.56;nan;99552.41;5082173;28;20479;-71
2024/01/09 08:20:13;;;;;;;204.65;73.13;;;;;;;9.54;nan;99549.09;5080865;28;20074;-69
2024/01/09 08:22:42;;;;;;;194.85;72.75;;;;;;;9.66;nan;99548.59;5083266;28;20048;-69
2024/01/09 08:25:11;;;;;;;192.55;70.65;;;;;;;9.50;nan;99548.59;5066216;28;20099;-71
2024/01/09 08:27:41;;;;;;;191.20;69.32;;;;;;;9.35;nan;99544.94;5057253;28;20653;-70
2024/01/09 08:30:11;;;;;;;180.68;69.80;;;;;;;9.72;nan;99550.59;5050717;28;20071;-72
2024/01/09 08:32:41;;;;;;;169.63;69.50;;;;;;;9.92;nan;99548.41;5083933;28;20101;-74
2024/01/09 08:35:11;;;;;;;187.93;70.47;;;;;;;9.71;nan;99546.28;5071764;28;20753;-74
2024/01/09 08:37:40;;;;;;;191.93;70.90;;;;;;;9.65;nan;99541.66;5084898;28;20135;-74
2024/01/09 08:40:10;;;;;;;190.45;73.55;;;;;;;9.47;nan;99538.34;5071302;28;20476;-71
2024/01/09 08:42:40;;;;;;;191.45;72.68;;;;;;;9.32;nan;99527.63;5049701;28;20066;-70
2024/01/09 08:45:11;;;;;;;188.35;69.80;;;;;;;9.47;nan;99531.25;5065748;28;20049;-73
2024/01/09 08:47:41;;;;;;;188.82;72.55;;;;;;;9.62;nan;99526.13;5050733;28;20052;-73
2024/01/09 08:50:10;;;;;;;198.43;72.93;;;;;;;9.74;nan;99535.38;5072289;28;20039;-74
2024/01/09 08:52:39;;;;;;;184.52;69.45;;;;;;;9.60;nan;99528.13;5091959;28;20450;-73
2024/01/09 08:55:09;;;;;;;181.52;68.60;;;;;;;10.08;nan;99526.41;5058844;28;20137;-73
2024/01/09 08:57:38;;;;;;;181.18;69.28;;;;;;;9.86;nan;99520.00;5090611;28;20314;-73
2024/01/09 09:00:08;;;;;;;190.85;69.53;;;;;;;9.85;nan;99519.16;5091072;28;20136;-73
2024/01/09 09:02:38;;;;;;;186.45;66.40;;;;;;;9.89;nan;99522.28;5070639;28;20059;-74
2024/01/09 09:05:07;;;;;;;179.15;68.53;;;;;;;9.93;nan;99515.66;5066316;28;20048;-73
2024/01/09 09:07:37;;;;;;;183.60;66.45;;;;;;;10.00;nan;99507.91;5068656;28;20776;-73
2024/01/09 09:10:06;;;;;;;180.55;68.70;;;;;;;9.93;nan;99503.28;5043881;28;20044;-72
2024/01/09 09:12:36;;;;;;;181.27;66.90;;;;;;;9.90;nan;99506.25;5073884;28;20527;-74
2024/01/09 09:15:05;;;;;;;175.10;70.20;;;;;;;10.22;nan;99502.72;5070204;28;20052;-72
2024/01/09 09:17:35;;;;;;;178.60;67.85;;;;;;;9.89;nan;99509.06;5069400;28;20151;-73
2024/01/09 09:20:05;;;;;;;172.50;66.78;;;;;;;9.97;nan;99514.34;5068422;28;20744;-73
2024/01/09 09:22:35;;;;;;;167.30;66.90;;;;;;;9.93;nan;99511.22;5062909;28;20472;-71
2024/01/09 09:25:07;;;;;;;156.90;64.22;;;;;;;9.87;nan;99503.09;5080469;28;20044;-73
2024/01/09 09:27:37;;;;;;;157.25;63.00;;;;;;;10.00;nan;99494.66;5060500;28;20051;-72
2024/01/09 09:30:07;;;;;;;158.40;62.45;;;;;;;10.27;nan;99487.16;5067876;28;20044;-72
2024/01/09 09:32:37;;;;;;;156.75;65.43;;;;;;;10.28;nan;99496.75;5047140;28;20045;-72
2024/01/09 09:35:06;;;;;;;160.88;62.75;;;;;;;10.09;nan;99483.88;5063859;28;20140;-72
2024/01/09 09:37:36;;;;;;;150.43;60.22;;;;;;;10.53;nan;99488.72;5049309;28;20052;-73
2024/01/09 09:40:05;;;;;;;151.65;63.17;;;;;;;10.74;nan;99483.63;5065961;28;20124;-71
2024/01/09 09:42:37;;;;;;;160.27;65.35;;;;;;;10.40;nan;99485.81;5073569;28;20583;-70
2024/01/09 09:45:13;;;;;;;150.23;60.63;;;;;;;10.39;nan;99487.63;5079686;28;20052;-70
2024/01/09 09:47:44;;;;;;;152.68;57.83;;;;;;;10.41;nan;99485.59;5068237;28;20048;-72
2024/01/09 09:50:14;;;;;;;160.63;64.03;;;;;;;10.46;nan;99491.22;5065815;28;20426;-71
2024/01/09 09:52:44;;;;;;;155.60;60.30;;;;;;;10.29;nan;99482.53;5061671;28;20059;-72
2024/01/09 09:55:14;;;;;;;145.90;59.60;;;;;;;10.27;nan;99473.09;5076928;28;20108;-71
2024/01/09 09:57:44;;;;;;;156.10;62.08;;;;;;;10.16;nan;99473.47;5082662;28;20041;-72
2024/01/09 10:00:13;;;;;;;162.25;64.35;;;;;;;10.22;nan;99476.25;5071854;28;20048;-71
2024/01/09 10:02:51;;;;;;;156.80;62.95;;;;;;;10.25;nan;99475.09;5090511;28;20131;-72
2024/01/09 10:05:21;;;;;;;157.63;62.38;;;;;;;10.22;nan;99468.31;5092891;28;20147;-70
2024/01/09 10:07:53;;;;;;;162.27;64.85;;;;;;;10.35;nan;99475.72;5086994;28;21102;-71
2024/01/09 10:10:23;;;;;;;165.48;65.90;;;;;;;10.36;nan;99477.34;5087297;28;20407;-68
2024/01/09 10:12:57;;;;;;;152.25;62.40;;;;;;;10.49;nan;99476.81;5069048;28;20140;-71
2024/01/09 10:15:26;;;;;;;167.82;68.13;;;;;;;10.26;nan;99467.00;5068033;28;20040;-70
2024/01/09 10:17:58;;;;;;;158.35;65.72;;;;;;;10.43;nan;99475.69;5062157;28;20117;-69
2024/01/09 10:20:30;;;;;;;169.23;68.65;;;;;;;10.43;nan;99474.84;5086330;28;20117;-69
2024/01/09 10:22:59;;;;;;;168.40;67.75;;;;;;;10.53;nan;99471.00;5084259;28;20044;-68
2024/01/09 10:25:32;;;;;;;171.20;65.55;;;;;;;10.55;nan;99474.28;5068309;28;20430;-69
2024/01/09 10:28:05;;;;;;;161.90;65.13;;;;;;;10.51;nan;99474.81;5065590;28;20047;-69
2024/01/09 10:30:38;;;;;;;177.30;69.95;;;;;;;10.47;nan;99482.28;5074240;28;20052;-69
2024/01/09 10:33:12;;;;;;;172.90;66.72;;;;;;;10.55;nan;99466.34;5070240;28;20040;-68
2024/01/09 10:35:42;;;;;;;182.45;69.82;;;;;;;10.67;nan;99464.94;5069120;28;20044;-68
2024/01/09 10:38:12;;;;;;;162.80;66.25;;;;;;;10.60;nan;99473.78;5085917;28;20055;-69
2024/01/09 10:40:41;;;;;;;190.77;69.63;;;;;;;10.58;nan;99481.88;5082889;28;20491;-69
2024/01/09 10:43:17;;;;;;;180.40;73.20;;;;;;;10.34;nan;99479.38;5086345;28;20143;-70
2024/01/09 10:45:48;;;;;;;188.43;76.32;;;;;;;10.33;nan;99477.72;5086721;28;20135;-69
2024/01/09 10:48:21;;;;;;;174.30;72.82;;;;;;;10.22;nan;99470.16;5083713;28;20052;-69
2024/01/09 10:50:51;;;;;;;180.73;71.82;;;;;;;10.29;nan;99473.75;5067978;28;20044;-69
2024/01/09 10:53:26;;;;;;;190.18;74.78;;;;;;;10.38;nan;99478.03;5081464;28;20051;-69
2024/01/09 10:55:59;;;;;;;173.32;75.15;;;;;;;10.42;nan;99478.50;5085754;28;20044;-69
2024/01/09 10:58:29;;;;;;;191.98;76.47;;;;;;;10.41;nan;99476.84;5086187;28;20059;-69
2024/01/09 11:00:59;;;;;;;180.30;72.90;;;;;;;10.38;nan;99480.66;5072102;28;20049;-70
2024/01/09 11:03:29;;;;;;;182.43;78.25;;;;;;;10.32;nan;99482.16;5084723;28;20121;-69
2024/01/09 11:06:03;;;;;;;198.85;82.40;;;;;;;10.41;nan;99484.78;5092805;28;20047;-69
2024/01/09 11:08:36;;;;;;;185.90;80.18;;;;;;;10.34;nan;99482.84;5070313;28;20036;-69
2024/01/09 11:11:13;;;;;;;196.30;80.45;;;;;;;10.31;nan;99491.09;5081552;28;20476;-69
2024/01/09 11:13:47;;;;;;;180.00;79.57;;;;;;;10.19;nan;99489.00;5073103;28;20086;-69
2024/01/09 11:16:19;;;;;;;192.50;79.68;;;;;;;10.11;nan;99491.66;5062478;28;20129;-70
2024/01/09 11:18:51;;;;;;;196.63;80.75;;;;;;;10.13;nan;99493.16;5079867;28;20134;-70
2024/01/09 11:21:27;;;;;;;209.40;88.22;;;;;;;10.05;nan;99493.16;5089227;28;20363;-70
2024/01/09 11:23:57;;;;;;;195.38;83.03;;;;;;;10.05;nan;99495.78;5090396;28;20051;-70
2024/01/09 11:26:37;;;;;;;224.85;86.80;;;;;;;10.18;nan;99497.94;5060764;28;20079;-69
2024/01/09 11:29:06;;;;;;;194.60;83.78;;;;;;;10.30;nan;99494.78;5064852;28;20059;-69
2024/01/09 11:31:36;;;;;;;216.32;87.57;;;;;;;10.24;nan;99492.78;5052112;28;20079;-70
2024/01/09 11:34:05;;;;;;;212.75;88.05;;;;;;;10.02;nan;99490.03;5067421;28;20059;-71
2024/01/09 11:36:37;;;;;;;212.13;87.13;;;;;;;10.20;nan;99488.00;5085338;28;20054;-69
2024/01/09 11:39:10;;;;;;;211.07;86.28;;;;;;;10.17;nan;99489.19;5085165;28;20572;-70
2024/01/09 11:41:40;;;;;;;215.80;89.15;;;;;;;9.99;nan;99491.19;5061660;28;20072;-70
2024/01/09 11:44:15;;;;;;;216.98;87.10;;;;;;;9.98;nan;99491.34;5074370;28;20455;-70